Time;durP1;ratioP1;P1;durP2;ratioP2;P2;SDS_P1;SDS_P2;PMS_P1;PMS_P2;Temp;Humidity;BMP_temperature;BMP_pressure;BME280_temperature;BME280_humidity;BME280_pressure;Samples;Min_cycle;Max_cycle;Signal;HPM_P1;HPM_P2
2022/03/09 00:00:12;;;;;;;87.2;101.5;;;;;;;1.1;70.1;99400;;;;
2022/03/09 00:11:12;;;;;;;87.2;101.5;;;;;;;1.1;70.4;99390;;;;
2022/03/09 00:21:12;;;;;;;65.5;76.1;;;;;;;1.1;70.1;99380;;;;
2022/03/09 00:31:12;;;;;;;65.5;76.1;;;;;;;1.2;69.7;99380;;;;
2022/03/09 00:42:12;;;;;;;65.5;76.1;;;;;;;1.1;69.9;99370;;;;
2022/03/09 00:53:12;;;;;;;62.5;77.7;;;;;;;1.1;70.1;99380;;;;
2022/03/09 01:04:12;;;;;;;62.5;77.7;;;;;;;1.2;70.1;99360;;;;
2022/03/09 01:14:12;;;;;;;59;70.5;;;;;;;1.1;70;99350;;;;
2022/03/09 01:25:12;;;;;;;59;70.5;;;;;;;1.2;70.1;99360;;;;
2022/03/09 01:36:12;;;;;;;59;70.5;;;;;;;1.2;70.2;99340;;;;
2022/03/09 01:47:12;;;;;;;64;80.5;;;;;;;1.3;70.5;99340;;;;
2022/03/09 01:57:12;;;;;;;64;80.5;;;;;;;1.3;70.5;99330;;;;
2022/03/09 02:07:12;;;;;;;64;80.5;;;;;;;1.2;70.6;99330;;;;
2022/03/09 02:17:12;;;;;;;74.7;84.1;;;;;;;1.2;70.8;99320;;;;
2022/03/09 02:28:12;;;;;;;74.7;84.1;;;;;;;1.2;70.7;99310;;;;
2022/03/09 02:38:12;;;;;;;74.7;84.1;;;;;;;1.2;70.9;99320;;;;
2022/03/09 02:49:12;;;;;;;70.4;83.8;;;;;;;1.1;71;99310;;;;
2022/03/09 02:59:12;;;;;;;70.4;83.8;;;;;;;1.2;71;99310;;;;
2022/03/09 03:10:12;;;;;;;70.4;83.8;;;;;;;1.2;70.8;99310;;;;
2022/03/09 03:20:12;;;;;;;75.2;92.9;;;;;;;1.1;71.1;99310;;;;
2022/03/09 03:31:12;;;;;;;75.2;92.9;;;;;;;1.2;71.5;99320;;;;
2022/03/09 03:41:12;;;;;;;75.2;92.9;;;;;;;1.2;71.7;99320;;;;
2022/03/09 03:52:12;;;;;;;72.2;88.2;;;;;;;1.2;71.8;99330;;;;
2022/03/09 04:03:12;;;;;;;72.2;88.2;;;;;;;1;72.4;99340;;;;
2022/03/09 04:14:12;;;;;;;75.6;91.6;;;;;;;0.9;72.9;99330;;;;
2022/03/09 04:24:12;;;;;;;75.6;91.6;;;;;;;0.9;73.6;99330;;;;
2022/03/09 04:34:12;;;;;;;75.6;91.6;;;;;;;0.9;73.3;99330;;;;
2022/03/09 04:45:12;;;;;;;77.2;90.4;;;;;;;0.9;73.7;99340;;;;
2022/03/09 04:55:12;;;;;;;77.2;90.4;;;;;;;0.9;73.7;99340;;;;
2022/03/09 05:05:12;;;;;;;77.2;90.4;;;;;;;1;73.8;99330;;;;
2022/03/09 05:15:12;;;;;;;78;92.6;;;;;;;0.9;74.1;99340;;;;
2022/03/09 05:25:12;;;;;;;78;92.6;;;;;;;0.9;74.4;99340;;;;
2022/03/09 05:35:12;;;;;;;78;92.6;;;;;;;0.9;75.1;99350;;;;
2022/03/09 05:46:12;;;;;;;83.1;99.4;;;;;;;0.9;75.7;99360;;;;
2022/03/09 05:56:12;;;;;;;83.1;99.4;;;;;;;0.9;76.1;99370;;;;
2022/03/09 06:06:12;;;;;;;83.1;99.4;;;;;;;0.9;76.3;99380;;;;
2022/03/09 06:16:12;;;;;;;74.6;95.3;;;;;;;1;76.5;99370;;;;
2022/03/09 06:26:12;;;;;;;74.6;95.3;;;;;;;1.1;76.7;99380;;;;
2022/03/09 06:36:12;;;;;;;74.6;95.3;;;;;;;1.1;76.9;99380;;;;
2022/03/09 06:47:12;;;;;;;69.2;77.5;;;;;;;1.2;76.7;99380;;;;
2022/03/09 06:57:12;;;;;;;69.2;77.5;;;;;;;1.4;76.4;99390;;;;
2022/03/09 07:07:12;;;;;;;69.2;77.5;;;;;;;1.5;76.1;99390;;;;
2022/03/09 07:17:12;;;;;;;64.6;74;;;;;;;1.7;76.2;99400;;;;
2022/03/09 07:28:12;;;;;;;64.6;74;;;;;;;1.8;75.8;99400;;;;
2022/03/09 07:39:12;;;;;;;64.6;74;;;;;;;2;75.4;99390;;;;
2022/03/09 07:49:12;;;;;;;63.2;71.6;;;;;;;2.1;75.1;99380;;;;
2022/03/09 07:59:12;;;;;;;63.2;71.6;;;;;;;2.2;74.7;99380;;;;
2022/03/09 08:10:12;;;;;;;63.2;71.6;;;;;;;2.1;74.5;99380;;;;
2022/03/09 08:20:12;;;;;;;60.9;71.9;;;;;;;2.3;74.9;99350;;;;
2022/03/09 08:30:12;;;;;;;60.9;71.9;;;;;;;2.7;74.2;99360;;;;
2022/03/09 08:41:12;;;;;;;62.5;72.7;;;;;;;3.1;73;99370;;;;
2022/03/09 08:51:12;;;;;;;;;;;;;;;;;;;;;
2022/03/09 09:01:12;;;;;;;62.5;72.7;;;;;;;3.3;70.5;99330;;;;
2022/03/09 09:12:12;;;;;;;60;72.7;;;;;;;3.6;70.2;99330;;;;
2022/03/09 09:22:12;;;;;;;60;72.7;;;;;;;3.7;68.6;99330;;;;
2022/03/09 09:33:12;;;;;;;60;72.7;;;;;;;4.1;67.5;99330;;;;
2022/03/09 09:43:12;;;;;;;55.6;64.6;;;;;;;4.2;66.4;99320;;;;
2022/03/09 09:54:13;;;;;;;55.6;64.6;;;;;;;4.8;65.8;99310;;;;
2022/03/09 10:05:12;;;;;;;55.6;64.6;;;;;;;5.2;64.3;99320;;;;
2022/03/09 10:16:12;;;;;;;57.3;64.1;;;;;;;5.4;63.6;99310;;;;
2022/03/09 10:27:12;;;;;;;57.3;64.1;;;;;;;5.6;63.2;99310;;;;
2022/03/09 10:37:12;;;;;;;57.3;64.1;;;;;;;6.4;62.2;99310;;;;
2022/03/09 10:47:12;;;;;;;57.6;67.3;;;;;;;6.6;60.3;99310;;;;
2022/03/09 10:57:12;;;;;;;57.6;67.3;;;;;;;6.8;59.9;99300;;;;
2022/03/09 11:07:12;;;;;;;57.6;67.3;;;;;;;7;59.8;99300;;;;
2022/03/09 11:18:12;;;;;;;54.4;66;;;;;;;7.2;59.6;99300;;;;
2022/03/09 11:28:12;;;;;;;54.4;66;;;;;;;7.5;57.8;99290;;;;
2022/03/09 11:39:12;;;;;;;54.4;66;;;;;;;7.3;57.3;99290;;;;
2022/03/09 11:50:12;;;;;;;53.2;63.5;;;;;;;7.7;56.8;99290;;;;
2022/03/09 12:00:12;;;;;;;53.2;63.5;;;;;;;7.7;56.7;99280;;;;
2022/03/09 12:10:12;;;;;;;53.2;63.5;;;;;;;7.5;56.5;99270;;;;
2022/03/09 12:21:12;;;;;;;47.7;57.8;;;;;;;8;55.7;99270;;;;
2022/03/09 12:31:12;;;;;;;47.7;57.8;;;;;;;8.1;54.1;99270;;;;
2022/03/09 12:41:12;;;;;;;37.2;45;;;;;;;8.2;52.4;99250;;;;
2022/03/09 12:51:12;;;;;;;37.2;45;;;;;;;8.2;51.8;99240;;;;
2022/03/09 13:02:12;;;;;;;37.2;45;;;;;;;8.7;51;99240;;;;
2022/03/09 13:13:12;;;;;;;26.7;35.1;;;;;;;8.9;49.1;99250;;;;
2022/03/09 13:24:14;;;;;;;26.7;35.1;;;;;;;9.1;47.8;99240;;;;
2022/03/09 13:34:13;;;;;;;26.7;35.1;;;;;;;9.4;43.6;99250;;;;
2022/03/09 13:45:12;;;;;;;15;20;;;;;;;9.1;42.1;99250;;;;
2022/03/09 13:55:12;;;;;;;15;20;;;;;;;9.2;40.4;99230;;;;
2022/03/09 14:05:12;;;;;;;15;20;;;;;;;9;39.9;99230;;;;
2022/03/09 14:16:12;;;;;;;9.1;13.3;;;;;;;9.2;39.3;99220;;;;
2022/03/09 14:27:12;;;;;;;9.1;13.3;;;;;;;8.8;38.1;99230;;;;
2022/03/09 14:37:12;;;;;;;9.1;13.3;;;;;;;8.5;38.1;99230;;;;
2022/03/09 14:47:12;;;;;;;7.9;13.3;;;;;;;8.4;38.7;99230;;;;
2022/03/09 14:58:12;;;;;;;7.9;13.3;;;;;;;8.1;38.4;99250;;;;
2022/03/09 15:08:12;;;;;;;7.9;13.3;;;;;;;7.9;38.8;99240;;;;
2022/03/09 15:19:12;;;;;;;9;14.2;;;;;;;7.7;39.1;99230;;;;
2022/03/09 15:30:12;;;;;;;9;14.2;;;;;;;7.6;39.8;99230;;;;
2022/03/09 15:41:12;;;;;;;8.9;13.2;;;;;;;7.5;40;99250;;;;
2022/03/09 15:51:12;;;;;;;8.9;13.2;;;;;;;7.3;42.4;99260;;;;
2022/03/09 16:01:14;;;;;;;8.9;13.2;;;;;;;7.2;43.3;99260;;;;
2022/03/09 16:12:12;;;;;;;12.4;17.5;;;;;;;7;44.4;99270;;;;
2022/03/09 16:22:12;;;;;;;12.4;17.5;;;;;;;7;45.5;99280;;;;
2022/03/09 16:33:12;;;;;;;12.4;17.5;;;;;;;7;46.3;99290;;;;
2022/03/09 16:43:12;;;;;;;59.1;72.7;;;;;;;6.9;46.6;99300;;;;
2022/03/09 16:53:12;;;;;;;59.1;72.7;;;;;;;6.8;46.6;99300;;;;
2022/03/09 17:03:12;;;;;;;59.1;72.7;;;;;;;6.7;47.4;99300;;;;
2022/03/09 17:14:12;;;;;;;99.2;137;;;;;;;6.6;47.6;99310;;;;
2022/03/09 17:24:12;;;;;;;99.2;137;;;;;;;6.6;47.6;99330;;;;
2022/03/09 17:34:12;;;;;;;99.2;137;;;;;;;6.6;47.5;99340;;;;
2022/03/09 17:44:12;;;;;;;15.2;21.2;;;;;;;6.5;51.2;99350;;;;
2022/03/09 17:55:12;;;;;;;15.2;21.2;;;;;;;6.3;55.7;99350;;;;
2022/03/09 18:05:12;;;;;;;15.2;21.2;;;;;;;6.2;55.6;99370;;;;
2022/03/09 18:15:12;;;;;;;21;28.3;;;;;;;6.2;53.1;99380;;;;
2022/03/09 18:26:12;;;;;;;21;28.3;;;;;;;6.1;55;99380;;;;
2022/03/09 18:37:14;;;;;;;21;28.3;;;;;;;6.1;55.9;99390;;;;
2022/03/09 18:47:12;;;;;;;21.5;25.8;;;;;;;6.1;56.4;99390;;;;
2022/03/09 18:57:12;;;;;;;21.5;25.8;;;;;;;5.9;57.8;99390;;;;
2022/03/09 19:07:12;;;;;;;21.5;25.8;;;;;;;5.8;59.2;99400;;;;
2022/03/09 19:17:12;;;;;;;12.4;16;;;;;;;5.3;65.3;99430;;;;
2022/03/09 19:28:13;;;;;;;12.4;16;;;;;;;5;68.1;99460;;;;
2022/03/09 19:38:12;;;;;;;12.4;16;;;;;;;4.9;70.1;99480;;;;
2022/03/09 19:48:12;;;;;;;19.3;25.2;;;;;;;4.6;74.5;99490;;;;
2022/03/09 19:58:14;;;;;;;19.3;25.2;;;;;;;4.5;75.1;99490;;;;
2022/03/09 20:08:13;;;;;;;19.3;25.2;;;;;;;4.4;75.2;99500;;;;
2022/03/09 20:18:12;;;;;;;16.6;21;;;;;;;4.2;75.9;99510;;;;
2022/03/09 20:28:12;;;;;;;16.6;21;;;;;;;4.2;77.6;99510;;;;
2022/03/09 20:39:12;;;;;;;16.6;21;;;;;;;3.4;80.5;99540;;;;
2022/03/09 20:49:12;;;;;;;21.1;28.7;;;;;;;3.2;80.9;99560;;;;
2022/03/09 21:00:14;;;;;;;21.1;28.7;;;;;;;2.7;82;99570;;;;
2022/03/09 21:11:12;;;;;;;29.3;33.7;;;;;;;2.6;82.5;99570;;;;
2022/03/09 21:21:12;;;;;;;29.3;33.7;;;;;;;2.5;82.4;99590;;;;
2022/03/09 21:32:12;;;;;;;29.3;33.7;;;;;;;2.4;82.4;99590;;;;
2022/03/09 21:42:12;;;;;;;28.1;31.4;;;;;;;2.4;82.6;99590;;;;
2022/03/09 21:53:13;;;;;;;28.1;31.4;;;;;;;2.4;82.3;99600;;;;
2022/03/09 22:04:12;;;;;;;28.1;31.4;;;;;;;2.4;82.3;99610;;;;
2022/03/09 22:15:12;;;;;;;28.6;33.7;;;;;;;2.4;82;99620;;;;
2022/03/09 22:26:12;;;;;;;28.6;33.7;;;;;;;2.3;81.1;99630;;;;
2022/03/09 22:37:12;;;;;;;28.6;33.7;;;;;;;2;81.6;99640;;;;
2022/03/09 22:47:12;;;;;;;24.5;27.6;;;;;;;1.7;81.6;99650;;;;
2022/03/09 22:58:12;;;;;;;24.5;27.6;;;;;;;1.6;80.1;99660;;;;
2022/03/09 23:08:12;;;;;;;24.5;27.6;;;;;;;1.5;79.9;99660;;;;
2022/03/09 23:18:12;;;;;;;27.1;34.3;;;;;;;1.4;76.3;99680;;;;
2022/03/09 23:29:12;;;;;;;27.1;34.3;;;;;;;1.1;76.3;99690;;;;
2022/03/09 23:39:12;;;;;;;21.3;23.8;;;;;;;1;77.1;99710;;;;
2022/03/09 23:50:12;;;;;;;21.3;23.8;;;;;;;1;76.6;99730;;;;
